Tributaries of Morava river

Břeclav-Ladná (Thaya)

Date and time (UTC) H (cm) Q (m³/s)
5. 3. 2024 16:00 87 51.7
5. 3. 2024 15:00 86 51
5. 3. 2024 14:00 89 53
5. 3. 2024 13:00 87 52
5. 3. 2024 12:00 87 52
5. 3. 2024 11:00 86 51
5. 3. 2024 10:00 86 51
5. 3. 2024 09:00 84 50
5. 3. 2024 08:00 85 50
5. 3. 2024 07:00 86 51
5. 3. 2024 06:00 85 50
5. 3. 2024 05:00 86 51
5. 3. 2024 04:00 85 50

H - water level, Q - discharge

Dluhonice (Bečva)

Date and time (UTC) H (cm) Q (m³/s)
5. 3. 2024 16:00 142 16
5. 3. 2024 15:00 142 16
5. 3. 2024 14:00 142 16
5. 3. 2024 13:00 142 16
5. 3. 2024 12:00 142 16
5. 3. 2024 11:00 142 16
5. 3. 2024 10:00 142 16
5. 3. 2024 09:00 141 15
5. 3. 2024 08:00 142 16
5. 3. 2024 07:00 143 17
5. 3. 2024 06:00 143 17
5. 3. 2024 05:00 143 17
5. 3. 2024 04:00 143 17

H - water level, Q - discharge
Source data
Labe Basin Vltava Basin Povodí Moravy ČHMÚ
Po vodě ekologicky, levně a v pohodě
backgroung on backgroung off